Terminal Aerodrome Forecast
Issued by NWS

Home | Current Version | Previous Version | Text Only | Print | Product List | Glossary On
Versions: 1 2 3 4 5 6 7 8 9 10 11 12
000
FTUS42 TJSJ 020010 RRA
TAFISX
TAF
TISX 020010Z 0200/0224 06006KT P6SM VCSH SCT025 BKN050 BKN120
      TEMPO 0200/0202 VRB12G19KT 5SM SHRA BKN025
     FM020230 05006KT P6SM -RA FEW025 SCT050 SCT120
     FM021300 10012KT P6SM FEW025 SCT050=

USA.gov is the U.S. government's official web portal to all federal, state and local government web resources and services.